Time;durP1;ratioP1;P1;durP2;ratioP2;P2;SDS_P1;SDS_P2;PMS_P1;PMS_P2;Temp;Humidity;BMP_temperature;BMP_pressure;BME280_temperature;BME280_humidity;BME280_pressure;Samples;Min_cycle;Max_cycle;Signal;HPM_P1;HPM_P2
2022/05/08 00:01:17;;;;;;;24.73;21.80;;;18.80;66.70;;;;;;5114515;27;20050;-63
2022/05/08 00:03:43;;;;;;;24.90;18.92;;;18.90;66.70;;;;;;5131797;27;20088;-63
2022/05/08 00:06:10;;;;;;;20.67;18.48;;;18.80;67.00;;;;;;5114166;27;20030;-61
2022/05/08 00:08:40;;;;;;;28.50;20.05;;;18.80;67.40;;;;;;5131868;27;20034;-62
2022/05/08 00:11:06;;;;;;;24.98;19.80;;;18.80;67.60;;;;;;5113596;27;20015;-63
2022/05/08 00:13:32;;;;;;;23.67;19.15;;;18.80;67.90;;;;;;5113595;27;20023;-63
2022/05/08 00:15:59;;;;;;;22.17;19.67;;;18.80;67.90;;;;;;5113676;27;20015;-63
2022/05/08 00:18:25;;;;;;;22.95;17.90;;;18.80;67.90;;;;;;5131710;27;20405;-72
2022/05/08 00:20:51;;;;;;;27.73;19.42;;;18.80;68.00;;;;;;5132264;27;20062;-63
2022/05/08 00:23:16;;;;;;;22.65;20.25;;;18.80;68.00;;;;;;5114204;27;20054;-63
2022/05/08 00:25:42;;;;;;;23.60;21.00;;;18.80;68.20;;;;;;5112819;27;20038;-63
2022/05/08 00:28:08;;;;;;;22.35;19.98;;;18.80;68.30;;;;;;5132330;27;20019;-63
2022/05/08 00:30:33;;;;;;;22.73;20.42;;;18.70;68.30;;;;;;5096336;27;20031;-65
2022/05/08 00:32:59;;;;;;;22.08;19.63;;;18.70;68.50;;;;;;5113775;28;20078;-62
2022/05/08 00:35:26;;;;;;;20.73;18.52;;;18.70;68.70;;;;;;5113249;28;20030;-71
2022/05/08 00:38:10;;;;;;;20.70;18.58;;;18.70;68.70;;;;;;5131700;28;20027;-64
2022/05/08 00:40:37;;;;;;;22.88;20.38;;;18.70;68.90;;;;;;5112814;28;20064;-63
2022/05/08 00:43:25;;;;;;;21.30;18.95;;;18.60;68.80;;;;;;5132233;28;20035;-64
2022/05/08 00:45:51;;;;;;;23.02;18.95;;;18.60;69.00;;;;;;5130816;27;20031;-66
2022/05/08 00:48:16;;;;;;;21.60;19.15;;;18.70;69.00;;;;;;5132033;27;20019;-63
2022/05/08 00:50:42;;;;;;;23.83;20.13;;;18.60;69.00;;;;;;5131169;27;20468;-63
2022/05/08 00:53:08;;;;;;;23.20;20.60;;;18.70;69.00;;;;;;5131794;28;20046;-63
2022/05/08 00:55:34;;;;;;;22.02;18.63;;;18.60;69.00;;;;;;5130710;28;20019;-63
2022/05/08 00:58:00;;;;;;;22.98;20.58;;;18.70;69.00;;;;;;5113455;28;20126;-63
2022/05/08 01:00:26;;;;;;;24.00;20.52;;;18.70;69.00;;;;;;5131935;27;20513;-73
2022/05/08 01:02:52;;;;;;;24.67;21.95;;;18.70;69.00;;;;;;5131168;27;20031;-63
2022/05/08 01:05:17;;;;;;;23.63;21.08;;;18.60;68.80;;;;;;5130641;27;20375;-63
2022/05/08 01:07:43;;;;;;;24.88;22.15;;;18.70;68.70;;;;;;5112893;28;20025;-64
2022/05/08 01:10:09;;;;;;;23.20;20.70;;;18.70;68.70;;;;;;5131845;28;20379;-62
2022/05/08 01:12:35;;;;;;;26.33;21.58;;;18.70;68.50;;;;;;5112408;28;20023;-71
2022/05/08 01:15:18;;;;;;;23.60;21.10;;;18.60;68.50;;;;;;5131206;28;20027;-63
2022/05/08 01:17:45;;;;;;;24.87;20.67;;;18.60;68.70;;;;;;5130681;27;20357;-63
2022/05/08 01:20:11;;;;;;;24.80;21.27;;;18.60;68.60;;;;;;5131715;28;20043;-64
2022/05/08 01:22:38;;;;;;;24.50;21.90;;;18.60;68.70;;;;;;5131194;28;20027;-63
2022/05/08 01:25:04;;;;;;;23.05;20.67;;;18.60;68.80;;;;;;5130918;28;20030;-65
2022/05/08 01:27:30;;;;;;;23.60;20.67;;;18.60;68.90;;;;;;5130782;27;20024;-73
2022/05/08 01:29:57;;;;;;;23.45;21.08;;;18.60;68.90;;;;;;5134698;27;20361;-63
2022/05/08 01:32:22;;;;;;;24.83;21.10;;;18.60;68.90;;;;;;5117309;27;20019;-63
2022/05/08 01:34:48;;;;;;;24.42;21.77;;;18.50;69.00;;;;;;5115984;27;20030;-63
2022/05/08 01:37:14;;;;;;;25.77;21.48;;;18.60;69.00;;;;;;5135195;27;20107;-64
2022/05/08 01:39:39;;;;;;;26.63;23.17;;;18.60;69.00;;;;;;5134321;27;20046;-61
2022/05/08 01:42:06;;;;;;;27.40;21.60;;;18.60;69.00;;;;;;5135543;27;20502;-63
2022/05/08 01:44:35;;;;;;;25.75;21.55;;;18.50;69.00;;;;;;5133725;27;20045;-72
2022/05/08 01:49:45;;;;;;;24.90;22.15;;;18.50;69.10;;;;;;5135307;27;20042;-63
2022/05/08 01:52:11;;;;;;;26.45;21.48;;;18.50;69.30;;;;;;5135040;27;20472;-70
2022/05/08 01:54:36;;;;;;;27.77;22.30;;;18.50;69.50;;;;;;5134007;27;20068;-63
2022/05/08 01:57:02;;;;;;;24.30;20.92;;;18.50;69.60;;;;;;5134993;27;20398;-63
2022/05/08 01:59:28;;;;;;;25.40;22.52;;;18.50;69.60;;;;;;5135045;27;20030;-66
2022/05/08 02:01:54;;;;;;;23.80;21.25;;;18.50;69.50;;;;;;5134529;27;20098;-63
2022/05/08 02:04:19;;;;;;;26.48;22.02;;;18.40;69.40;;;;;;5115593;27;20068;-64
2022/05/08 02:06:45;;;;;;;26.50;22.25;;;18.40;69.40;;;;;;5134396;27;20077;-62
2022/05/08 02:09:11;;;;;;;23.95;21.50;;;18.40;69.30;;;;;;5135048;27;20084;-63
2022/05/08 02:11:37;;;;;;;24.00;21.48;;;18.40;69.20;;;;;;5115763;27;20472;-64
2022/05/08 02:14:04;;;;;;;26.05;22.40;;;18.40;69.40;;;;;;5115609;27;20031;-64
2022/05/08 02:16:30;;;;;;;26.88;22.92;;;18.40;69.40;;;;;;5134239;27;20384;-64
2022/05/08 02:18:56;;;;;;;24.35;21.80;;;18.40;69.60;;;;;;5134030;27;20027;-63
2022/05/08 02:21:22;;;;;;;26.33;22.25;;;18.40;69.80;;;;;;5134781;27;20483;-64
2022/05/08 02:23:47;;;;;;;25.23;21.80;;;18.30;70.00;;;;;;5133690;27;20114;-66
2022/05/08 02:26:13;;;;;;;28.33;22.50;;;18.30;70.10;;;;;;5134479;27;20094;-62
2022/05/08 02:28:42;;;;;;;26.35;23.38;;;18.30;70.10;;;;;;5133470;27;20023;-67
2022/05/08 02:31:07;;;;;;;28.88;23.98;;;18.30;70.10;;;;;;5115458;27;20479;-64
2022/05/08 02:33:33;;;;;;;26.30;23.38;;;18.40;70.20;;;;;;5133981;27;20027;-73
2022/05/08 02:35:59;;;;;;;28.52;25.38;;;18.40;70.50;;;;;;5133060;27;20027;-64
2022/05/08 02:38:25;;;;;;;27.35;24.08;;;18.30;70.40;;;;;;5115982;27;20361;-62
2022/05/08 02:40:51;;;;;;;30.02;24.30;;;18.30;70.60;;;;;;5133372;27;20102;-64
2022/05/08 02:43:21;;;;;;;28.20;25.17;;;18.30;70.50;;;;;;5133802;27;20051;-64
2022/05/08 02:45:47;;;;;;;27.40;24.48;;;18.30;70.30;;;;;;5133568;27;20027;-63
2022/05/08 02:48:14;;;;;;;28.25;25.25;;;18.30;70.90;;;;;;5134121;27;20418;-63
2022/05/08 02:50:39;;;;;;;26.02;23.23;;;18.30;70.40;;;;;;5133111;27;20027;-63
2022/05/08 02:53:05;;;;;;;26.73;23.92;;;18.30;70.50;;;;;;5134026;27;20407;-63
2022/05/08 02:58:33;;;;;;;30.23;25.88;;;18.30;70.70;;;;;;5134137;27;20049;-63
2022/05/08 03:01:05;;;;;;;28.25;25.10;;;18.30;70.80;;;;;;5133552;27;20023;-63
2022/05/08 03:03:31;;;;;;;28.77;25.48;;;18.20;71.00;;;;;;5133776;27;20106;-63
2022/05/08 03:05:56;;;;;;;29.27;26.15;;;18.20;71.00;;;;;;5132579;27;20617;-62
2022/05/08 03:08:22;;;;;;;28.83;25.83;;;18.20;71.30;;;;;;5133512;27;20027;-62
2022/05/08 03:13:38;;;;;;;30.30;25.35;;;18.20;71.40;;;;;;5133670;27;20029;-62
2022/05/08 03:16:05;;;;;;;32.03;26.98;;;18.20;71.40;;;;;;5133436;27;20071;-64
2022/05/08 03:18:31;;;;;;;32.13;28.73;;;18.20;71.60;;;;;;5132802;27;20069;-66
2022/05/08 03:20:57;;;;;;;32.35;28.17;;;18.10;71.70;;;;;;5133161;27;20181;-63
2022/05/08 03:23:22;;;;;;;30.85;27.55;;;18.10;72.00;;;;;;5132928;27;20487;-62
2022/05/08 03:25:48;;;;;;;29.80;26.55;;;18.10;72.10;;;;;;5114301;27;20088;-63
2022/05/08 03:28:15;;;;;;;32.78;27.15;;;18.20;72.20;;;;;;5132433;27;20023;-63
2022/05/08 03:30:42;;;;;;;33.28;27.83;;;18.10;72.30;;;;;;5132627;27;20111;-72
2022/05/08 03:33:09;;;;;;;34.60;28.08;;;18.10;72.40;;;;;;5133175;27;20030;-62
2022/05/08 03:35:39;;;;;;;33.28;29.35;;;18.10;72.50;;;;;;5133095;27;20046;-63
2022/05/08 03:38:06;;;;;;;33.20;28.77;;;18.10;72.60;;;;;;5132781;27;20015;-63
2022/05/08 03:40:33;;;;;;;32.45;28.58;;;18.10;72.60;;;;;;5132577;27;20015;-68
2022/05/08 03:42:59;;;;;;;32.92;29.30;;;18.10;72.60;;;;;;5104473;28;20040;-70
2022/05/08 03:45:26;;;;;;;34.03;30.42;;;18.10;72.50;;;;;;5090428;28;20144;-63
2022/05/08 03:47:52;;;;;;;31.55;27.90;;;18.10;72.70;;;;;;5090222;28;20066;-63
2022/05/08 03:50:19;;;;;;;32.55;29.05;;;18.20;72.60;;;;;;5091839;28;20047;-63
2022/05/08 03:52:45;;;;;;;33.63;29.98;;;18.20;72.60;;;;;;5091368;28;20020;-63
2022/05/08 03:55:13;;;;;;;33.08;29.33;;;18.20;72.50;;;;;;5092048;28;20443;-63
2022/05/08 03:57:39;;;;;;;29.40;26.15;;;18.20;72.50;;;;;;5091216;28;20027;-73
2022/05/08 04:00:05;;;;;;;30.13;27.00;;;18.20;72.50;;;;;;5091332;28;20077;-64
2022/05/08 04:02:31;;;;;;;29.60;26.45;;;18.20;72.50;;;;;;5090349;28;20024;-64
2022/05/08 04:05:00;;;;;;;28.48;25.55;;;18.30;72.60;;;;;;5091092;28;20043;-63
2022/05/08 04:07:25;;;;;;;29.52;26.42;;;18.30;72.60;;;;;;5091381;28;20103;-64
2022/05/08 04:09:51;;;;;;;28.52;25.60;;;18.30;72.40;;;;;;5090942;28;20108;-64
2022/05/08 04:12:17;;;;;;;27.50;24.63;;;18.30;72.00;;;;;;5090881;28;20020;-66
2022/05/08 04:14:42;;;;;;;27.50;24.60;;;18.30;72.10;;;;;;5089750;28;20063;-71
2022/05/08 04:17:08;;;;;;;29.13;26.02;;;18.30;72.00;;;;;;5090908;28;20092;-68
2022/05/08 04:19:34;;;;;;;29.25;24.98;;;18.20;72.00;;;;;;5089362;28;20100;-63
2022/05/08 04:24:51;;;;;;;32.65;25.80;;;18.20;72.00;;;;;;5088878;28;20485;-63
2022/05/08 04:27:17;;;;;;;29.92;25.73;;;18.20;71.80;;;;;;5090937;28;20058;-62
2022/05/08 04:29:43;;;;;;;30.63;25.48;;;18.20;71.70;;;;;;5090543;28;20024;-71
2022/05/08 04:32:08;;;;;;;28.98;25.85;;;18.30;71.80;;;;;;5090620;28;20387;-62
2022/05/08 04:34:34;;;;;;;28.35;25.17;;;18.30;71.60;;;;;;5091498;28;20024;-62
2022/05/08 04:37:00;;;;;;;29.27;26.27;;;18.30;71.30;;;;;;5091000;28;20028;-62
2022/05/08 04:39:25;;;;;;;28.90;24.63;;;18.30;71.20;;;;;;5090658;28;20103;-63
2022/05/08 04:41:52;;;;;;;30.27;27.08;;;18.30;71.30;;;;;;5089665;28;20499;-65
2022/05/08 04:44:18;;;;;;;28.60;25.52;;;18.40;71.30;;;;;;5123762;27;20050;-63
2022/05/08 04:46:43;;;;;;;29.67;25.98;;;18.30;71.20;;;;;;5130405;28;20059;-72
2022/05/08 04:49:10;;;;;;;31.90;27.88;;;18.40;71.00;;;;;;5130502;28;20463;-63
2022/05/08 04:51:36;;;;;;;30.77;26.75;;;18.40;71.10;;;;;;5131903;27;20027;-63
2022/05/08 04:54:02;;;;;;;30.23;27.00;;;18.40;71.00;;;;;;5131526;28;20479;-62
2022/05/08 04:56:29;;;;;;;31.35;27.05;;;18.40;71.20;;;;;;5131040;27;20027;-63
2022/05/08 04:58:55;;;;;;;30.13;25.67;;;18.40;70.80;;;;;;5130223;28;20023;-62
2022/05/08 05:01:21;;;;;;;27.30;24.52;;;18.50;70.80;;;;;;5112771;28;20088;-68
2022/05/08 05:03:48;;;;;;;28.92;26.02;;;18.50;70.70;;;;;;5132751;27;20459;-73
2022/05/08 05:06:14;;;;;;;30.20;26.23;;;18.50;70.50;;;;;;5135756;27;20024;-62
2022/05/08 05:08:39;;;;;;;32.95;27.77;;;18.50;70.30;;;;;;5135223;27;20023;-63
2022/05/08 05:11:09;;;;;;;29.02;25.85;;;18.50;70.30;;;;;;5134824;27;20019;-66
2022/05/08 05:13:38;;;;;;;32.60;26.42;;;18.60;70.20;;;;;;5135334;27;20026;-62
2022/05/08 05:16:05;;;;;;;36.08;27.83;;;18.50;70.00;;;;;;5134943;27;20027;-62
2022/05/08 05:18:30;;;;;;;29.85;26.33;;;18.50;70.00;;;;;;5135279;27;20055;-62
2022/05/08 05:20:56;;;;;;;29.17;25.13;;;18.50;70.10;;;;;;5133457;27;20120;-63
2022/05/08 05:23:22;;;;;;;28.30;25.30;;;18.50;70.10;;;;;;5115843;27;20395;-64
2022/05/08 05:25:49;;;;;;;30.45;25.65;;;18.50;70.10;;;;;;5134708;27;20023;-72
2022/05/08 05:28:15;;;;;;;28.27;24.88;;;18.50;70.00;;;;;;5134832;27;20019;-65
2022/05/08 05:30:41;;;;;;;32.30;26.42;;;18.50;70.00;;;;;;5133780;27;20015;-62
2022/05/08 05:33:07;;;;;;;29.67;25.80;;;18.50;69.80;;;;;;5114698;27;20318;-62
2022/05/08 05:35:39;;;;;;;28.92;25.90;;;18.50;69.60;;;;;;5134422;27;20184;-62
2022/05/08 05:38:04;;;;;;;30.20;26.65;;;18.50;69.60;;;;;;5134022;27;20023;-62
2022/05/08 05:40:30;;;;;;;29.02;25.67;;;18.50;69.40;;;;;;5134795;27;20067;-65
2022/05/08 05:42:59;;;;;;;28.05;24.27;;;18.60;69.30;;;;;;5133810;27;20116;-69
2022/05/08 05:45:25;;;;;;;28.50;25.13;;;18.60;69.80;;;;;;5134676;27;20051;-62
2022/05/08 05:47:52;;;;;;;28.55;25.65;;;18.70;68.90;;;;;;5115708;27;20020;-71
2022/05/08 05:50:23;;;;;;;29.45;24.75;;;18.70;68.50;;;;;;5134330;27;20031;-64
2022/05/08 05:52:49;;;;;;;32.85;25.27;;;18.80;68.10;;;;;;5134644;27;20033;-72
2022/05/08 05:55:16;;;;;;;28.60;23.95;;;18.90;68.00;;;;;;5134548;27;20025;-68
2022/05/08 05:57:42;;;;;;;27.75;24.58;;;19.00;67.50;;;;;;5134368;27;20057;-64
2022/05/08 06:00:10;;;;;;;26.15;23.48;;;19.10;66.90;;;;;;5133459;27;20023;-64
2022/05/08 06:02:37;;;;;;;26.65;22.58;;;19.10;66.60;;;;;;5115406;27;20113;-70
2022/05/08 06:05:03;;;;;;;27.35;24.52;;;19.20;66.50;;;;;;5133573;27;20030;-64
2022/05/08 06:07:29;;;;;;;27.92;24.35;;;19.20;66.00;;;;;;5116125;27;20111;-65
2022/05/08 06:09:55;;;;;;;28.65;25.48;;;19.20;65.80;;;;;;5114863;27;20051;-64
2022/05/08 06:12:21;;;;;;;29.00;24.98;;;19.30;66.00;;;;;;5134158;27;20435;-64
2022/05/08 06:14:46;;;;;;;29.60;24.95;;;19.40;65.60;;;;;;5133828;27;20031;-64
2022/05/08 06:17:13;;;;;;;28.33;23.73;;;19.40;65.40;;;;;;5115147;27;20029;-63
2022/05/08 06:19:39;;;;;;;33.22;26.02;;;19.50;65.20;;;;;;5134069;27;20019;-63
2022/05/08 06:22:04;;;;;;;28.00;23.48;;;19.60;64.70;;;;;;5133442;27;20034;-63
2022/05/08 06:24:30;;;;;;;25.98;23.20;;;19.70;64.50;;;;;;5134248;27;20041;-63
2022/05/08 06:26:56;;;;;;;26.98;23.77;;;19.70;64.00;;;;;;5132989;27;20023;-64
2022/05/08 06:29:22;;;;;;;28.40;24.08;;;19.70;63.50;;;;;;5133647;27;20019;-64
2022/05/08 06:31:51;;;;;;;27.20;24.17;;;19.70;63.40;;;;;;5133555;27;20460;-68
2022/05/08 06:34:18;;;;;;;29.08;23.77;;;19.80;63.40;;;;;;5133932;27;20019;-63
2022/05/08 06:36:44;;;;;;;30.27;23.50;;;19.80;63.30;;;;;;5134236;27;20152;-63
2022/05/08 06:39:10;;;;;;;26.52;23.60;;;19.90;63.10;;;;;;5114524;27;20095;-63
2022/05/08 06:41:39;;;;;;;27.77;23.27;;;19.90;62.90;;;;;;5133866;27;20027;-64
2022/05/08 06:44:05;;;;;;;27.90;23.20;;;19.90;62.80;;;;;;5132155;27;20593;-63
2022/05/08 06:46:32;;;;;;;28.35;22.80;;;20.00;62.80;;;;;;5114784;27;20048;-63
2022/05/08 06:49:01;;;;;;;28.80;24.83;;;20.00;62.40;;;;;;5114475;27;20019;-62
2022/05/08 06:51:27;;;;;;;29.90;24.27;;;20.00;62.50;;;;;;5133107;27;20102;-63
2022/05/08 06:53:53;;;;;;;27.38;23.70;;;20.00;62.30;;;;;;5132017;27;20111;-71
2022/05/08 06:56:20;;;;;;;26.77;22.90;;;19.90;62.20;;;;;;5132042;27;20039;-66
2022/05/08 07:01:42;;;;;;;27.42;24.42;;;19.90;62.30;;;;;;5132150;27;20084;-64
2022/05/08 07:04:10;;;;;;;29.20;23.10;;;19.90;62.20;;;;;;5131833;27;20015;-63
2022/05/08 07:06:38;;;;;;;25.15;22.35;;;19.80;62.30;;;;;;5132916;27;20027;-63
2022/05/08 07:09:05;;;;;;;27.58;24.60;;;19.80;62.30;;;;;;5131547;27;20098;-64
2022/05/08 07:11:31;;;;;;;26.63;22.30;;;19.80;62.50;;;;;;5113128;27;20092;-63
2022/05/08 07:13:58;;;;;;;26.88;22.48;;;19.80;62.40;;;;;;5130263;27;20051;-65
2022/05/08 07:16:23;;;;;;;27.60;22.33;;;19.80;62.30;;;;;;5131392;27;20027;-68
2022/05/08 07:18:49;;;;;;;25.73;21.77;;;19.90;62.50;;;;;;5113173;27;20369;-64
2022/05/08 07:21:16;;;;;;;27.73;22.08;;;20.00;62.40;;;;;;5113021;27;20027;-66
2022/05/08 07:23:42;;;;;;;26.08;21.48;;;20.10;62.30;;;;;;5132421;27;20024;-62
2022/05/08 07:26:08;;;;;;;27.17;22.73;;;20.20;62.00;;;;;;5112646;27;20158;-63
2022/05/08 07:28:34;;;;;;;27.80;22.98;;;20.30;61.70;;;;;;5113363;27;20126;-63
2022/05/08 07:31:01;;;;;;;26.83;22.48;;;20.30;61.60;;;;;;5131178;27;20663;-64
2022/05/08 07:33:29;;;;;;;24.80;20.45;;;20.30;61.50;;;;;;5131603;27;20031;-68
2022/05/08 07:36:12;;;;;;;24.25;21.63;;;20.40;61.60;;;;;;5112982;27;20499;-71
2022/05/08 07:38:48;;;;;;;26.23;22.77;;;20.40;61.60;;;;;;5131688;27;20105;-64
2022/05/08 07:41:16;;;;;;;24.40;21.73;;;20.40;61.40;;;;;;5131055;27;20513;-64
2022/05/08 07:43:45;;;;;;;26.10;20.75;;;20.60;61.50;;;;;;5098266;28;20106;-64
2022/05/08 07:46:12;;;;;;;24.48;21.02;;;20.70;61.20;;;;;;5090217;28;20020;-63
2022/05/08 07:48:38;;;;;;;26.60;21.70;;;20.80;60.60;;;;;;5089803;28;20114;-63
2022/05/08 07:51:06;;;;;;;26.35;21.33;;;20.90;60.10;;;;;;5089074;28;20107;-64
2022/05/08 07:53:33;;;;;;;23.98;20.60;;;21.00;59.90;;;;;;5090346;28;20384;-67
2022/05/08 07:55:59;;;;;;;26.85;20.95;;;21.10;59.40;;;;;;5089483;28;20028;-64
2022/05/08 07:58:32;;;;;;;24.27;20.98;;;21.30;58.80;;;;;;5089304;28;20541;-65
2022/05/08 08:00:58;;;;;;;23.55;21.05;;;21.50;58.00;;;;;;5089949;28;20032;-67
2022/05/08 08:03:26;;;;;;;23.95;20.23;;;21.60;56.70;;;;;;5089326;28;20032;-65
2022/05/08 08:05:52;;;;;;;23.92;19.63;;;21.70;56.70;;;;;;5090897;28;20016;-64
2022/05/08 08:08:23;;;;;;;20.35;18.15;;;21.90;56.10;;;;;;5087972;28;20161;-70
2022/05/08 08:10:51;;;;;;;22.45;19.02;;;22.10;55.90;;;;;;5090531;28;20027;-70
2022/05/08 08:13:19;;;;;;;21.80;17.98;;;22.30;54.90;;;;;;5088284;28;20024;-64
2022/05/08 08:15:46;;;;;;;20.58;17.58;;;22.40;54.10;;;;;;5087767;28;20020;-69
2022/05/08 08:18:13;;;;;;;21.98;16.92;;;22.50;53.10;;;;;;5088322;28;20020;-66
2022/05/08 08:20:39;;;;;;;21.80;18.42;;;22.60;52.70;;;;;;5072220;28;20024;-64
2022/05/08 08:23:05;;;;;;;22.00;18.50;;;22.80;52.20;;;;;;5089494;28;20107;-64
2022/05/08 08:25:31;;;;;;;25.63;19.30;;;22.90;51.70;;;;;;5084999;28;20020;-62
2022/05/08 08:27:57;;;;;;;22.08;17.70;;;23.00;51.40;;;;;;5089123;28;20028;-73
2022/05/08 08:30:23;;;;;;;22.08;18.77;;;23.10;50.90;;;;;;5089149;28;20081;-63
2022/05/08 08:32:49;;;;;;;21.90;19.35;;;23.30;50.60;;;;;;5088117;28;20492;-68
2022/05/08 08:35:15;;;;;;;23.35;18.40;;;23.40;50.40;;;;;;5087539;28;20031;-67
2022/05/08 08:37:40;;;;;;;24.25;21.02;;;23.50;49.90;;;;;;5086546;28;20077;-63
2022/05/08 08:40:07;;;;;;;23.38;19.25;;;23.50;49.30;;;;;;5087391;28;20388;-63
2022/05/08 08:42:32;;;;;;;23.17;19.15;;;23.50;49.20;;;;;;5091479;27;20024;-63
2022/05/08 08:48:03;;;;;;;23.80;20.33;;;23.50;48.90;;;;;;5129666;28;20533;-67
2022/05/08 08:50:29;;;;;;;24.85;19.65;;;23.50;49.10;;;;;;5111624;28;20030;-65
2022/05/08 08:52:57;;;;;;;23.77;20.80;;;23.60;49.20;;;;;;5129946;27;20098;-72
2022/05/08 08:55:23;;;;;;;22.08;19.42;;;23.80;49.60;;;;;;5110462;28;20053;-62
2022/05/08 08:57:50;;;;;;;22.85;19.17;;;24.00;48.50;;;;;;5129417;28;20051;-69
2022/05/08 09:00:18;;;;;;;24.73;21.02;;;24.20;48.20;;;;;;5110738;28;20284;-64
2022/05/08 09:02:44;;;;;;;23.27;20.13;;;24.20;47.70;;;;;;5111064;28;20102;-63
2022/05/08 09:05:13;;;;;;;24.60;18.13;;;24.20;47.50;;;;;;5111784;28;20034;-64
2022/05/08 09:07:44;;;;;;;26.80;20.30;;;24.20;47.60;;;;;;5130295;27;20493;-63
2022/05/08 09:10:24;;;;;;;22.83;20.30;;;24.30;47.60;;;;;;5129974;28;20030;-65
2022/05/08 09:12:52;;;;;;;24.05;19.98;;;24.20;47.20;;;;;;5113249;28;20019;-65
2022/05/08 09:15:24;;;;;;;26.15;22.95;;;24.20;48.00;;;;;;5129470;28;20260;-65
2022/05/08 09:18:11;;;;;;;29.00;19.92;;;24.30;47.60;;;;;;5111838;28;20028;-67
2022/05/08 09:20:39;;;;;;;23.50;19.40;;;24.40;47.20;;;;;;5130381;28;20035;-65
2022/05/08 09:23:16;;;;;;;24.42;20.65;;;24.50;46.80;;;;;;5130227;27;20045;-63
2022/05/08 09:25:46;;;;;;;25.35;21.58;;;24.20;46.80;;;;;;5130488;27;20019;-63
2022/05/08 09:28:16;;;;;;;35.25;30.42;;;24.10;47.80;;;;;;5095706;28;20023;-62
2022/05/08 09:30:57;;;;;;;24.92;21.50;;;24.00;47.40;;;;;;5131622;28;20016;-64
2022/05/08 09:33:26;;;;;;;26.20;20.65;;;24.00;47.60;;;;;;5112026;28;20020;-63
2022/05/08 09:35:52;;;;;;;23.73;19.05;;;24.00;48.00;;;;;;5131150;27;20094;-62
2022/05/08 09:38:17;;;;;;;22.77;17.98;;;24.20;48.10;;;;;;5130651;28;20190;-63
2022/05/08 09:40:45;;;;;;;22.50;18.55;;;24.20;48.20;;;;;;5112656;28;20030;-62
2022/05/08 09:43:28;;;;;;;22.17;18.33;;;24.20;47.80;;;;;;5130008;27;20039;-64
2022/05/08 09:45:58;;;;;;;23.48;20.33;;;24.30;47.40;;;;;;5130954;27;20030;-63
2022/05/08 09:48:28;;;;;;;22.58;19.88;;;24.40;47.70;;;;;;5112260;28;20019;-62
2022/05/08 09:51:15;;;;;;;25.13;22.42;;;24.30;47.60;;;;;;5115649;27;20024;-63
2022/05/08 09:53:42;;;;;;;22.13;19.92;;;23.90;47.60;;;;;;5134614;27;20421;-65
2022/05/08 09:56:10;;;;;;;26.05;21.38;;;23.60;48.70;;;;;;5133941;27;20033;-61
2022/05/08 09:58:55;;;;;;;24.92;22.23;;;23.70;49.10;;;;;;5134408;27;20032;-61
2022/05/08 10:01:23;;;;;;;24.83;21.92;;;23.80;49.00;;;;;;5132281;27;20076;-61
2022/05/08 10:03:49;;;;;;;34.70;20.88;;;23.90;49.10;;;;;;5133294;27;20031;-60
2022/05/08 10:06:15;;;;;;;30.23;23.90;;;23.90;49.00;;;;;;5131645;27;20480;-64
2022/05/08 10:08:43;;;;;;;23.65;20.00;;;23.70;49.30;;;;;;5133479;27;20028;-63
2022/05/08 10:14:08;;;;;;;21.75;19.13;;;23.60;49.90;;;;;;5132461;27;20110;-63
2022/05/08 10:16:56;;;;;;;21.60;18.63;;;23.90;49.70;;;;;;5114356;27;20118;-60
2022/05/08 10:19:27;;;;;;;21.25;19.10;;;24.00;49.00;;;;;;5131820;27;20216;-62
2022/05/08 10:21:56;;;;;;;22.13;19.38;;;24.00;49.20;;;;;;5133016;27;20483;-63
2022/05/08 10:24:33;;;;;;;24.52;19.13;;;24.00;49.10;;;;;;5132414;27;20447;-63
2022/05/08 10:27:16;;;;;;;22.33;18.85;;;24.10;48.70;;;;;;5133569;27;20015;-62
2022/05/08 10:29:42;;;;;;;20.40;18.23;;;24.00;48.90;;;;;;5134045;27;20023;-63
2022/05/08 10:32:10;;;;;;;21.25;18.95;;;24.20;49.20;;;;;;5114554;27;20020;-65
2022/05/08 10:34:39;;;;;;;28.83;21.02;;;24.30;48.90;;;;;;5133896;27;20023;-62
2022/05/08 10:37:13;;;;;;;21.73;19.42;;;24.30;48.80;;;;;;5132674;27;20472;-68
2022/05/08 10:39:48;;;;;;;23.33;19.73;;;24.20;48.40;;;;;;5115534;27;20034;-62
2022/05/08 10:42:29;;;;;;;24.20;20.10;;;24.20;48.50;;;;;;5114697;27;20031;-62
2022/05/08 10:44:59;;;;;;;21.80;17.40;;;24.20;48.80;;;;;;5134292;27;20035;-62
2022/05/08 10:47:37;;;;;;;19.05;14.20;;;24.30;48.10;;;;;;5114643;27;20027;-62
2022/05/08 10:50:12;;;;;;;59.45;50.47;;;24.30;47.20;;;;;;5114682;27;20448;-67
2022/05/08 10:52:39;;;;;;;116.57;103.97;;;24.30;46.80;;;;;;5115227;27;20027;-62
2022/05/08 10:55:08;;;;;;;34.80;29.25;;;24.20;47.10;;;;;;5132856;27;20102;-65
2022/05/08 10:57:36;;;;;;;33.00;29.33;;;24.10;47.40;;;;;;5114643;27;20066;-61
2022/05/08 11:00:15;;;;;;;19.63;17.42;;;24.10;47.30;;;;;;5131660;27;20511;-67
2022/05/08 11:02:50;;;;;;;20.60;17.40;;;24.20;47.40;;;;;;5114230;27;20029;-63
2022/05/08 11:05:27;;;;;;;26.20;21.45;;;24.20;47.10;;;;;;5132267;27;20096;-61
2022/05/08 11:07:55;;;;;;;16.42;14.68;;;24.20;47.60;;;;;;5132000;27;20062;-61
2022/05/08 11:10:24;;;;;;;15.57;13.98;;;24.30;47.70;;;;;;5132058;27;20012;-62
2022/05/08 11:13:09;;;;;;;17.10;14.65;;;24.40;47.10;;;;;;5133084;27;20019;-65
2022/05/08 11:15:35;;;;;;;19.77;16.77;;;24.60;46.80;;;;;;5133040;27;20106;-65
2022/05/08 11:18:09;;;;;;;15.25;13.55;;;24.70;46.50;;;;;;5113924;27;20530;-66
2022/05/08 11:20:44;;;;;;;19.15;15.68;;;24.80;46.50;;;;;;5132934;27;20019;-61
2022/05/08 11:23:11;;;;;;;16.02;14.32;;;25.00;45.80;;;;;;5131722;27;20023;-63
2022/05/08 11:25:37;;;;;;;25.50;21.02;;;25.10;44.90;;;;;;5114140;27;20084;-63
2022/05/08 11:28:03;;;;;;;17.73;15.10;;;25.20;44.80;;;;;;5132943;27;20015;-62
2022/05/08 11:30:33;;;;;;;18.65;16.58;;;25.10;44.50;;;;;;5132488;27;20066;-63
2022/05/08 11:36:08;;;;;;;18.38;12.60;;;25.30;44.60;;;;;;5131320;27;20026;-67
2022/05/08 11:38:45;;;;;;;15.70;13.68;;;25.60;43.90;;;;;;5132155;27;20072;-62
2022/05/08 11:41:12;;;;;;;12.80;11.38;;;25.50;43.60;;;;;;5130665;27;20019;-63
2022/05/08 11:43:52;;;;;;;14.02;11.23;;;25.60;43.90;;;;;;5131493;27;20047;-62
2022/05/08 11:46:20;;;;;;;17.15;11.52;;;25.70;43.40;;;;;;5130417;27;20027;-64
2022/05/08 11:48:48;;;;;;;11.52;9.15;;;25.90;43.30;;;;;;5131584;27;20020;-64
2022/05/08 11:51:16;;;;;;;11.60;9.95;;;25.90;42.60;;;;;;5130323;27;20027;-63
2022/05/08 11:53:46;;;;;;;10.75;9.52;;;26.10;42.30;;;;;;5112555;27;20022;-65
2022/05/08 11:56:26;;;;;;;16.00;11.60;;;26.20;42.60;;;;;;5111505;27;20430;-62
2022/05/08 11:58:53;;;;;;;14.43;11.35;;;26.30;42.20;;;;;;5113214;27;20031;-65
2022/05/08 12:01:31;;;;;;;14.52;11.68;;;26.20;42.20;;;;;;5111464;27;20130;-61
2022/05/08 12:04:35;;;;;;;14.85;10.65;;;26.00;42.80;;;;;;5129269;27;20029;-66
2022/05/08 12:07:12;;;;;;;18.38;13.23;;;26.30;42.30;;;;;;5007224;28;20022;-63
2022/05/08 12:09:43;;;;;;;12.70;9.57;;;26.50;42.20;;;;;;5118323;27;20105;-65
2022/05/08 12:12:28;;;;;;;12.90;9.00;;;26.50;42.00;;;;;;5130513;27;20027;-68
2022/05/08 12:14:55;;;;;;;14.00;10.60;;;26.60;41.40;;;;;;5130043;27;20021;-62
2022/05/08 12:17:22;;;;;;;12.93;10.73;;;26.60;41.50;;;;;;5110819;27;20132;-63
2022/05/08 12:19:58;;;;;;;19.77;14.77;;;26.40;42.10;;;;;;5131570;27;20060;-62
2022/05/08 12:22:26;;;;;;;12.85;11.10;;;26.20;42.60;;;;;;5112065;27;20365;-62
2022/05/08 12:24:53;;;;;;;9.77;8.77;;;26.20;42.80;;;;;;5112018;27;20030;-62
2022/05/08 12:27:20;;;;;;;15.18;12.32;;;26.30;42.60;;;;;;5109674;28;20051;-62
2022/05/08 12:29:46;;;;;;;14.88;12.55;;;26.20;42.60;;;;;;5130995;27;20015;-64
2022/05/08 12:32:16;;;;;;;14.40;11.95;;;26.20;42.90;;;;;;5111943;27;20016;-62
2022/05/08 12:34:43;;;;;;;11.48;9.52;;;25.90;43.00;;;;;;5131315;27;20023;-61
2022/05/08 12:37:10;;;;;;;17.92;11.45;;;26.00;43.30;;;;;;5129694;27;20382;-68
2022/05/08 12:39:36;;;;;;;20.20;15.30;;;26.00;43.10;;;;;;5131012;28;20038;-60
2022/05/08 12:42:02;;;;;;;16.35;12.13;;;25.80;43.10;;;;;;5112573;28;20023;-64
2022/05/08 12:44:28;;;;;;;15.60;12.75;;;25.80;42.50;;;;;;5130158;28;20055;-62
2022/05/08 12:46:54;;;;;;;10.65;8.95;;;25.70;43.10;;;;;;5111971;28;20031;-62
2022/05/08 12:49:20;;;;;;;13.77;10.63;;;25.80;43.20;;;;;;5112102;28;20022;-61
2022/05/08 12:51:46;;;;;;;13.73;9.77;;;25.90;43.50;;;;;;5112441;28;20019;-62
2022/05/08 12:54:11;;;;;;;23.52;18.73;;;26.10;43.20;;;;;;5130347;27;20051;-63
2022/05/08 12:56:37;;;;;;;13.70;10.90;;;26.00;42.80;;;;;;5130032;27;20038;-63